LFRS/NTE METAR and TAF weather

Enter ICAO airport designator
Station Type Date Time Source
LFRS METAR 2023/01/30 11:30 UTC NOAA

LFRS 301130Z AUTO 21008KT 180V250 9999 FEW012 OVC035 08/06 Q1030 NOSIG


Station Type Date Time Source
LFRS Decoded METAR 2023/01/30 11:30 UTC NOAA

Nantes, France (LFRS) 47-10N 001-36W 27M
Jan 30, 2023 - 06:30 AM EST / 2023.01.30 1130 UTC
Wind: from the SSW (210 degrees) at 9 MPH (8 KT) (direction variable):0
Visibility: greater than 7 mile(s):0
Sky conditions: overcast
Temperature: 46 F (8 C)
Dew Point: 42 F (6 C)
Relative Humidity: 87%
Pressure (altimeter): 30.42 in. Hg (1030 hPa)
ob: LFRS 301130Z AUTO 21008KT 180V250 9999 FEW012 OVC035 08/06 Q1030 NOSIG
cycle: 11

Station Type Date Time Source
LFRS TAF 2023/01/30 12:48 UTC NOAA

TAF TAF LFRS 301100Z 3012/3118 21008KT 9999 BKN036
TEMPO 3012/3019 4500 -RA BKN010
BECMG 3019/3021 VRB03KT 3000 BR PROB40
TEMPO 3021/3110 0500 FG VV///
BECMG 3110/3113 27005KT 9999 NSW SCT020 BKN025

Example: see airport list